Time;durP1;ratioP1;P1;durP2;ratioP2;P2;SDS_P1;SDS_P2;PMS_P1;PMS_P2;Temp;Humidity;BMP_temperature;BMP_pressure;BME280_temperature;BME280_humidity;BME280_pressure;Samples;Min_cycle;Max_cycle;Signal;HPM_P1;HPM_P2
2022/05/25 00:01:09;;;;;;;26.13;7.93;;;;;;;13.92;71.99;99963.89;1355194;91;21342;-82
2022/05/25 00:03:36;;;;;;;20.67;6.57;;;;;;;13.88;72.60;99966.61;1354403;90;21305;-81
2022/05/25 00:06:06;;;;;;;21.90;6.43;;;;;;;13.82;72.67;99967.84;1350015;91;21432;-81
2022/05/25 00:08:32;;;;;;;16.02;5.45;;;;;;;13.75;72.33;99965.05;1337682;92;21312;-82
2022/05/25 00:10:59;;;;;;;18.97;5.90;;;;;;;13.74;71.94;99957.58;1338034;91;21275;-82
2022/05/25 00:13:25;;;;;;;14.27;5.23;;;;;;;13.73;71.88;99961.25;1339217;92;21430;-82
2022/05/25 00:15:52;;;;;;;19.67;6.53;;;;;;;13.70;71.77;99958.14;1338180;92;22306;-82
2022/05/25 00:18:19;;;;;;;24.57;5.37;;;;;;;13.64;71.64;99964.99;1338618;92;21327;-83
2022/05/25 00:20:45;;;;;;;17.73;5.63;;;;;;;13.59;71.66;99967.36;1345509;92;21380;-82
2022/05/25 00:23:11;;;;;;;15.57;5.33;;;;;;;13.53;71.67;99972.88;1356211;91;21320;-83
2022/05/25 00:25:39;;;;;;;29.67;6.93;;;;;;;13.50;71.71;99964.44;1340683;92;21451;-83
2022/05/25 00:28:11;;;;;;;22.77;6.03;;;;;;;13.46;71.76;99967.94;1349009;90;21335;-83
2022/05/25 00:30:40;;;;;;;11.27;6.07;;;;;;;13.40;72.51;99969.97;1337757;92;21587;-83
2022/05/25 00:33:06;;;;;;;12.73;4.60;;;;;;;13.29;73.08;99967.72;1338874;92;22380;-83
2022/05/25 00:35:35;;;;;;;22.73;5.73;;;;;;;13.22;73.37;99977.39;1351014;91;21318;-83
2022/05/25 00:38:03;;;;;;;10.27;4.83;;;;;;;13.21;73.03;99963.78;1355186;91;21305;-83
2022/05/25 00:40:40;;;;;;;11.60;3.70;;;;;;;13.22;72.63;99960.11;1355650;91;21328;-83
2022/05/25 00:43:08;;;;;;;15.40;5.50;;;;;;;13.19;73.07;99959.14;1348572;91;21417;-83
2022/05/25 00:45:50;;;;;;;11.70;5.17;;;;;;;13.10;73.09;99967.16;1337964;92;21372;-83
2022/05/25 00:48:24;;;;;;;17.47;5.77;;;;;;;13.08;72.47;99967.82;1347917;92;21290;-83
2022/05/25 00:53:36;;;;;;;22.80;6.27;;;;;;;13.07;72.43;99976.80;1338441;92;21224;-85
2022/05/25 00:56:05;;;;;;;14.90;5.23;;;;;;;13.03;74.52;99975.52;1356128;90;21452;-85
2022/05/25 00:58:32;;;;;;;12.60;4.10;;;;;;;13.01;74.80;99973.52;1352097;90;21290;-84
2022/05/25 01:01:00;;;;;;;18.27;5.80;;;;;;;13.00;74.66;99976.34;1340548;91;23008;-83
2022/05/25 01:03:26;;;;;;;10.43;4.53;;;;;;;13.02;73.76;99974.34;1338061;92;21423;-83
2022/05/25 01:06:25;;;;;;;18.13;4.70;;;;;;;13.01;74.49;99981.49;1339030;92;21534;-83
2022/05/25 01:09:15;;;;;;;15.53;5.50;;;;;;;12.97;75.66;99970.87;1335528;91;21511;-82
2022/05/25 01:12:07;;;;;;;22.30;7.50;;;;;;;12.84;75.45;99975.42;1338165;92;21439;-82
2022/05/25 01:14:51;;;;;;;21.97;5.80;;;;;;;12.76;75.45;99979.95;1338092;92;22244;-82
2022/05/25 01:17:25;;;;;;;11.17;4.13;;;;;;;12.78;74.96;99985.92;1338198;91;21342;-82
2022/05/25 01:20:18;;;;;;;14.23;4.40;;;;;;;12.80;75.15;99986.55;1337862;92;22272;-81
2022/05/25 01:23:10;;;;;;;12.33;4.50;;;;;;;12.81;74.91;99993.55;1337443;92;21254;-81
2022/05/25 01:26:14;;;;;;;16.27;4.47;;;;;;;12.77;75.38;99995.69;1338077;92;21409;-83
2022/05/25 01:29:23;;;;;;;12.17;5.00;;;;;;;12.73;75.98;99985.61;1337972;92;21282;-82
2022/05/25 01:32:23;;;;;;;13.93;6.30;;;;;;;12.68;75.23;99985.29;1338186;92;22251;-83
2022/05/25 01:35:04;;;;;;;12.60;4.33;;;;;;;12.57;76.65;99983.83;1350627;91;21356;-83
2022/05/25 01:37:42;;;;;;;10.03;4.67;;;;;;;12.45;76.75;99983.36;1339126;90;21439;-83
2022/05/25 01:40:13;;;;;;;8.93;4.30;;;;;;;12.43;76.15;99984.06;1338277;91;21479;-82
2022/05/25 01:42:46;;;;;;;12.13;3.87;;;;;;;12.42;76.05;99993.00;1338441;92;21416;-83
2022/05/25 01:45:14;;;;;;;14.30;5.60;;;;;;;12.39;76.89;99998.14;1338299;92;21424;-83
2022/05/25 01:47:44;;;;;;;8.33;4.67;;;;;;;12.34;77.21;100000.98;1338520;92;22171;-83
2022/05/25 01:50:15;;;;;;;22.85;5.67;;;;;;;12.30;77.40;99995.69;1339266;91;21231;-85
2022/05/25 01:52:49;;;;;;;19.77;5.10;;;;;;;12.25;77.84;100002.00;1362903;89;22285;-83
2022/05/25 01:55:34;;;;;;;9.40;4.50;;;;;;;12.19;77.94;100000.34;1359505;90;21517;-83
2022/05/25 01:58:12;;;;;;;11.40;4.77;;;;;;;12.10;78.58;100005.84;1371849;90;21405;-82
2022/05/25 02:00:43;;;;;;;14.70;5.53;;;;;;;12.05;77.83;99998.37;1345196;93;21487;-82
2022/05/25 02:06:25;;;;;;;11.07;4.33;;;;;;;12.10;77.43;100006.66;1383802;89;21372;-82
2022/05/25 02:09:30;;;;;;;12.00;4.83;;;;;;;12.02;77.76;100007.98;1385173;89;21324;-81
2022/05/25 02:12:01;;;;;;;15.03;5.13;;;;;;;12.00;77.48;100003.37;1385201;89;21406;-82
2022/05/25 02:14:36;;;;;;;10.13;5.60;;;;;;;11.97;76.38;99998.41;1361714;89;21375;-82
2022/05/25 02:17:17;;;;;;;13.83;5.23;;;;;;;11.98;77.37;100000.55;1382465;91;22262;-82
2022/05/25 02:20:06;;;;;;;12.67;4.97;;;;;;;11.92;78.00;100001.54;1384615;89;21531;-82
2022/05/25 02:22:51;;;;;;;12.77;4.90;;;;;;;11.87;77.67;100009.16;1383190;89;21375;-81
2022/05/25 02:25:31;;;;;;;14.30;4.30;;;;;;;11.85;78.39;100015.59;1374537;90;21332;-83
2022/05/25 02:28:05;;;;;;;15.10;6.03;;;;;;;11.81;79.06;100011.13;1366608;90;21338;-82
2022/05/25 02:30:36;;;;;;;14.07;5.63;;;;;;;11.81;78.57;100016.92;1366186;90;21569;-84
2022/05/25 02:33:13;;;;;;;10.10;5.33;;;;;;;11.79;79.07;100019.73;1366271;90;21258;-84
2022/05/25 02:35:42;;;;;;;8.13;5.10;;;;;;;11.80;78.56;100025.89;1366866;90;21317;-84
2022/05/25 02:38:10;;;;;;;12.83;6.97;;;;;;;11.80;78.27;100021.41;1366733;90;21340;-84
2022/05/25 02:40:38;;;;;;;10.10;5.90;;;;;;;11.80;78.12;100021.41;1366983;90;21354;-83
2022/05/25 02:43:06;;;;;;;13.13;5.50;;;;;;;11.82;77.90;100030.50;1365250;90;21272;-84
2022/05/25 02:45:34;;;;;;;10.47;5.13;;;;;;;11.85;78.11;100026.20;1379533;90;21331;-84
2022/05/25 02:48:00;;;;;;;14.60;5.80;;;;;;;11.87;78.15;100025.57;1370127;89;21398;-84
2022/05/25 02:50:26;;;;;;;11.60;5.70;;;;;;;11.91;78.28;100028.21;1365438;90;21339;-84
2022/05/25 02:52:52;;;;;;;10.47;5.30;;;;;;;11.94;78.00;100045.14;1367677;90;21385;-84
2022/05/25 02:55:19;;;;;;;9.40;5.63;;;;;;;11.98;78.80;100050.94;1372490;90;21281;-83
2022/05/25 02:57:45;;;;;;;11.93;5.90;;;;;;;11.94;78.72;100054.43;1320659;92;21293;-84
2022/05/25 03:00:13;;;;;;;10.37;5.47;;;;;;;11.90;78.76;100049.93;1329096;93;21407;-83
2022/05/25 03:02:39;;;;;;;15.60;6.20;;;;;;;11.94;78.39;100062.38;1344219;92;21450;-82
2022/05/25 03:05:09;;;;;;;12.93;5.27;;;;;;;12.01;78.56;100061.22;1344532;91;21429;-82
2022/05/25 03:07:36;;;;;;;15.40;5.37;;;;;;;12.07;78.60;100062.70;1344592;91;21281;-82
2022/05/25 03:10:04;;;;;;;10.13;5.27;;;;;;;12.13;78.62;100058.55;1345143;91;21347;-82
2022/05/25 03:12:31;;;;;;;12.23;5.80;;;;;;;12.17;78.65;100060.72;1344371;91;21266;-82
2022/05/25 03:14:57;;;;;;;14.07;5.30;;;;;;;12.25;78.00;100053.73;1342376;90;22287;-82
2022/05/25 03:17:23;;;;;;;9.53;4.70;;;;;;;12.33;77.76;100059.03;1327077;92;21363;-82
2022/05/25 03:19:54;;;;;;;8.83;5.70;;;;;;;12.39;77.95;100061.02;1326847;93;21428;-82
2022/05/25 03:22:21;;;;;;;;;;;;;;;12.42;77.46;100064.66;1328725;93;21384;-82
2022/05/25 03:24:47;;;;;;;12.53;5.00;;;;;;;12.46;77.73;100066.00;1343431;93;20276;-82
2022/05/25 03:27:14;;;;;;;7.07;4.47;;;;;;;12.56;77.58;100068.45;1345013;92;21339;-82
2022/05/25 03:29:41;;;;;;;9.57;4.43;;;;;;;12.62;77.67;100064.61;1346714;92;21340;-82
2022/05/25 03:32:08;;;;;;;9.80;5.30;;;;;;;12.74;77.45;100066.91;1366669;90;21279;-82
2022/05/25 03:34:35;;;;;;;12.93;4.57;;;;;;;12.81;76.85;100064.73;1356716;91;21331;-82
2022/05/25 03:37:01;;;;;;;8.63;4.60;;;;;;;12.88;76.61;100060.89;1368541;90;21470;-82
2022/05/25 03:39:28;;;;;;;11.17;5.73;;;;;;;12.96;76.65;100063.52;1372294;90;22271;-83
2022/05/25 03:42:01;;;;;;;10.43;5.57;;;;;;;13.01;76.20;100063.84;1372769;90;21330;-82
2022/05/25 03:44:28;;;;;;;13.87;4.60;;;;;;;13.06;76.14;100067.29;1369416;89;21324;-82
2022/05/25 03:46:54;;;;;;;19.03;5.47;;;;;;;13.11;76.56;100066.28;1368569;90;22225;-86
2022/05/25 03:49:20;;;;;;;11.43;5.37;;;;;;;13.21;76.34;100066.09;1326065;93;21363;-84
2022/05/25 03:51:48;;;;;;;13.60;5.60;;;;;;;13.31;76.16;100066.72;1343932;92;21310;-84
2022/05/25 03:54:15;;;;;;;8.53;4.60;;;;;;;13.41;75.75;100070.00;1326087;92;21376;-85
2022/05/25 03:56:41;;;;;;;9.97;4.90;;;;;;;13.51;75.82;100069.26;1364748;90;22258;-85
2022/05/25 03:59:07;;;;;;;10.60;5.63;;;;;;;13.57;75.48;100068.23;1367580;90;21302;-86
2022/05/25 04:01:36;;;;;;;12.57;5.60;;;;;;;13.63;75.27;100071.52;1366516;90;21308;-86
2022/05/25 04:04:03;;;;;;;6.57;5.00;;;;;;;13.68;75.30;100069.98;1366379;90;21413;-83
2022/05/25 04:06:30;;;;;;;12.77;5.27;;;;;;;13.73;74.90;100080.11;1366107;90;21339;-83
2022/05/25 04:08:56;;;;;;;7.63;5.30;;;;;;;13.79;74.78;100086.05;1366375;90;22291;-81
2022/05/25 04:11:22;;;;;;;8.93;4.27;;;;;;;13.82;74.57;100080.87;1364213;90;21316;-83
2022/05/25 04:13:49;;;;;;;7.13;5.47;;;;;;;13.85;74.39;100080.02;1351496;91;21311;-81
2022/05/25 04:16:15;;;;;;;10.77;5.43;;;;;;;13.85;73.84;100076.03;1358154;90;22263;-83
2022/05/25 04:18:41;;;;;;;7.63;5.70;;;;;;;13.86;73.75;100064.88;1367559;90;21280;-81
2022/05/25 04:21:07;;;;;;;11.77;5.70;;;;;;;13.85;73.54;100070.70;1367957;90;21295;-85
2022/05/25 04:23:33;;;;;;;12.57;5.47;;;;;;;13.88;73.19;100087.64;1367822;90;21287;-85
2022/05/25 04:25:59;;;;;;;11.63;6.73;;;;;;;13.85;73.17;100090.66;1368517;90;21369;-84
2022/05/25 04:28:25;;;;;;;15.10;7.20;;;;;;;13.84;73.02;100086.35;1364501;90;22227;-86
2022/05/25 04:30:52;;;;;;;8.20;6.43;;;;;;;13.89;72.91;100091.95;1364203;91;21351;-85
2022/05/25 04:33:18;;;;;;;18.93;6.53;;;;;;;13.97;72.81;100101.71;1367272;90;22285;-85
2022/05/25 04:35:44;;;;;;;15.20;7.17;;;;;;;14.08;72.95;100105.80;1342628;91;21273;-85
2022/05/25 04:38:13;;;;;;;11.07;6.27;;;;;;;14.12;73.01;100091.94;1346142;92;21353;-85
2022/05/25 04:40:43;;;;;;;7.70;6.50;;;;;;;14.18;72.46;100089.92;1365158;90;21490;-84
2022/05/25 04:43:14;;;;;;;11.93;6.75;;;;;;;14.26;72.28;100087.67;1365171;90;21462;-85
2022/05/25 04:45:41;;;;;;;;;;;;;;;14.35;72.10;100091.09;1367676;90;21433;-86
2022/05/25 04:48:08;;;;;;;11.63;7.03;;;;;;;14.43;72.14;100090.51;1365571;90;20296;-86
2022/05/25 04:50:41;;;;;;;13.63;6.60;;;;;;;14.53;71.57;100094.77;1357388;90;21347;-86
2022/05/25 04:53:10;;;;;;;21.50;8.67;;;;;;;14.61;71.36;100103.51;1362556;89;22262;-86
2022/05/25 04:58:28;;;;;;;47.83;8.63;;;;;;;14.87;70.91;100104.44;1360308;91;21279;-86
2022/05/25 05:00:55;;;;;;;19.17;6.87;;;;;;;15.05;70.83;100109.39;1359881;91;21486;-86
2022/05/25 05:03:23;;;;;;;14.73;7.07;;;;;;;15.21;70.50;100095.02;1361396;91;21391;-85
2022/05/25 05:05:51;;;;;;;11.20;6.13;;;;;;;15.35;70.03;100093.35;1354177;91;21370;-84
2022/05/25 05:08:18;;;;;;;20.53;6.23;;;;;;;15.54;70.13;100091.94;1360085;91;21509;-84
2022/05/25 05:10:44;;;;;;;13.63;6.23;;;;;;;15.70;69.65;100099.72;1359944;91;21221;-85
2022/05/25 05:13:11;;;;;;;9.30;5.70;;;;;;;15.84;69.10;100091.87;1373756;91;22123;-85
2022/05/25 05:15:45;;;;;;;15.93;5.90;;;;;;;15.98;68.02;100092.31;1377984;89;21315;-85
2022/05/25 05:18:12;;;;;;;13.83;5.60;;;;;;;16.16;67.84;100094.02;1358932;91;21431;-85
2022/05/25 05:20:39;;;;;;;17.10;5.90;;;;;;;16.37;67.34;100092.33;1360478;91;21464;-85
2022/05/25 05:23:06;;;;;;;6.80;5.27;;;;;;;16.53;66.68;100096.06;1378182;89;22226;-83
2022/05/25 05:25:34;;;;;;;12.30;5.57;;;;;;;16.68;65.89;100091.42;1377796;89;22158;-82
2022/05/25 05:28:10;;;;;;;15.83;5.70;;;;;;;16.85;65.18;100100.52;1360752;89;22742;-83
2022/05/25 05:30:42;;;;;;;20.23;5.50;;;;;;;16.99;64.59;100099.57;1364336;89;21402;-83
2022/05/25 05:33:08;;;;;;;9.77;5.30;;;;;;;17.13;63.60;100095.13;1353329;89;21424;-83
2022/05/25 05:35:34;;;;;;;8.87;5.43;;;;;;;17.26;63.51;100091.67;1354657;90;21414;-84
2022/05/25 05:38:01;;;;;;;12.30;5.73;;;;;;;17.41;63.05;100086.20;1353895;91;22295;-85
2022/05/25 05:40:29;;;;;;;12.37;5.60;;;;;;;17.58;62.63;100094.17;1327537;92;21482;-84
2022/05/25 05:42:55;;;;;;;16.33;5.00;;;;;;;17.75;62.13;100106.65;1334587;93;21288;-83
2022/05/25 05:45:29;;;;;;;11.83;6.17;;;;;;;17.88;61.68;100107.24;1333888;93;21535;-83
2022/05/25 05:48:12;;;;;;;25.77;10.37;;;;;;;17.91;60.62;100098.28;1334464;93;21378;-84
2022/05/25 05:50:41;;;;;;;27.03;15.27;;;;;;;17.96;60.22;100095.83;1337096;92;21347;-84
2022/05/25 05:53:10;;;;;;;28.30;15.97;;;;;;;17.99;60.26;100091.40;1331736;91;21488;-83
2022/05/25 05:55:37;;;;;;;22.70;14.80;;;;;;;18.01;60.05;100089.35;1358763;91;21317;-84
2022/05/25 05:58:03;;;;;;;18.77;8.73;;;;;;;18.06;60.00;100086.56;1357903;90;21450;-84
2022/05/25 06:00:29;;;;;;;20.33;12.23;;;;;;;18.09;60.20;100088.83;1358478;91;21361;-84
2022/05/25 06:02:57;;;;;;;32.33;19.10;;;;;;;18.09;59.90;100089.64;1358267;91;21463;-85
2022/05/25 06:05:23;;;;;;;22.83;12.27;;;;;;;18.09;59.87;100080.80;1340444;92;21369;-86
2022/05/25 06:07:48;;;;;;;14.23;5.87;;;;;;;18.06;60.11;100067.81;1340456;91;21280;-86
2022/05/25 06:10:15;;;;;;;16.07;6.43;;;;;;;18.02;60.62;100056.18;1339486;93;21317;-86
2022/05/25 06:12:40;;;;;;;9.00;4.40;;;;;;;17.99;60.63;100044.55;1358550;90;21331;-86
2022/05/25 06:20:37;;;;;;;8.17;4.17;;;;;;;17.86;60.28;100058.42;1359260;90;21287;-86
2022/05/25 06:23:03;;;;;;;11.87;5.00;;;;;;;17.89;60.27;100065.53;1359346;90;21317;-86
2022/05/25 06:25:30;;;;;;;5.53;3.67;;;;;;;17.94;60.26;100063.59;1359071;90;21384;-85
2022/05/25 06:27:56;;;;;;;6.77;4.30;;;;;;;17.96;60.21;100061.02;1358820;91;21349;-85
2022/05/25 06:30:23;;;;;;;12.77;3.90;;;;;;;18.02;60.26;100052.16;1359055;91;22285;-85
2022/05/25 06:32:49;;;;;;;9.17;3.93;;;;;;;18.08;60.47;100056.39;1341324;91;21458;-85
2022/05/25 06:35:16;;;;;;;8.23;3.93;;;;;;;18.14;60.35;100042.17;1358833;90;21435;-84
2022/05/25 06:37:42;;;;;;;13.53;4.37;;;;;;;18.24;60.11;100045.25;1358847;90;21338;-85
2022/05/25 06:40:09;;;;;;;13.03;4.50;;;;;;;18.32;59.97;100046.38;1359182;91;21421;-86
2022/05/25 06:42:37;;;;;;;8.30;4.63;;;;;;;18.44;59.77;100027.81;1359241;90;21339;-85
2022/05/25 06:45:03;;;;;;;11.73;4.73;;;;;;;18.60;59.53;100021.20;1358933;91;21383;-85
2022/05/25 06:47:30;;;;;;;9.57;4.30;;;;;;;18.73;58.90;100017.16;1358959;90;22183;-85
2022/05/25 06:49:56;;;;;;;7.00;3.43;;;;;;;18.86;58.79;100017.13;1358818;90;22250;-85
2022/05/25 06:52:23;;;;;;;14.83;4.43;;;;;;;18.92;56.36;100028.34;1358607;91;21288;-85
2022/05/25 06:54:54;;;;;;;8.83;4.57;;;;;;;19.08;57.72;100030.27;1361754;90;21368;-85
2022/05/25 06:57:21;;;;;;;10.37;4.40;;;;;;;19.16;57.57;100045.59;1361765;91;22308;-84
2022/05/25 06:59:47;;;;;;;10.10;4.30;;;;;;;19.24;57.12;100043.69;1362157;90;21310;-84
2022/05/25 07:02:13;;;;;;;12.27;4.50;;;;;;;19.35;57.48;100050.55;1362626;91;21317;-85
2022/05/25 07:04:39;;;;;;;17.30;5.17;;;;;;;19.47;56.77;100059.27;1362175;90;22190;-85
2022/05/25 07:07:05;;;;;;;8.70;4.40;;;;;;;19.60;56.57;100064.57;1362117;91;21391;-83
2022/05/25 07:09:33;;;;;;;8.93;4.70;;;;;;;19.73;56.36;100067.19;1362038;91;21236;-86
2022/05/25 07:11:59;;;;;;;11.33;4.80;;;;;;;19.82;55.22;100064.57;1362272;91;21331;-83
2022/05/25 07:14:27;;;;;;;9.20;4.33;;;;;;;19.97;54.37;100063.44;1362361;91;21303;-83
2022/05/25 07:16:55;;;;;;;12.68;4.80;;;;;;;19.95;54.88;100056.11;1362653;91;21362;-82
2022/05/25 07:19:21;;;;;;;15.72;4.87;;;;;;;19.89;54.75;100057.80;1361763;91;21324;-84
2022/05/25 07:21:48;;;;;;;6.30;4.28;;;;;;;20.10;55.23;100059.28;1361904;90;21302;-83
2022/05/25 07:24:14;;;;;;;15.83;5.33;;;;;;;20.28;55.05;100058.51;1362262;91;21391;-81
2022/05/25 07:26:40;;;;;;;5.17;4.33;;;;;;;20.47;54.70;100059.38;1361611;91;21310;-82
2022/05/25 07:29:07;;;;;;;11.15;5.35;;;;;;;20.58;53.55;100064.06;1361965;90;21354;-83
2022/05/25 07:31:42;;;;;;;14.30;5.30;;;;;;;20.55;52.97;100065.86;1359613;91;21406;-83
2022/05/25 07:34:18;;;;;;;10.05;4.80;;;;;;;20.59;52.46;100061.66;1338127;92;22450;-83
2022/05/25 07:36:53;;;;;;;7.85;3.80;;;;;;;20.81;53.05;100060.73;1347974;92;21465;-84
2022/05/25 07:39:24;;;;;;;9.33;4.87;;;;;;;21.03;52.83;100061.11;1347682;93;21362;-85
2022/05/25 07:41:54;;;;;;;10.10;4.62;;;;;;;21.31;52.40;100057.02;1378550;89;21516;-84
2022/05/25 07:44:37;;;;;;;9.48;4.60;;;;;;;21.56;52.04;100060.44;1378285;89;21325;-84
2022/05/25 07:47:04;;;;;;;9.38;4.37;;;;;;;21.78;51.11;100049.14;1377970;89;21414;-85
2022/05/25 07:49:30;;;;;;;9.75;4.55;;;;;;;21.96;51.02;100046.91;1378606;89;21436;-84
2022/05/25 07:51:57;;;;;;;7.95;5.78;;;;;;;22.20;50.47;100047.79;1378349;89;21243;-84
2022/05/25 07:54:24;;;;;;;11.15;4.55;;;;;;;22.36;49.98;100044.41;1381533;88;21548;-82
2022/05/25 07:56:51;;;;;;;6.30;4.47;;;;;;;22.46;48.68;100051.36;1383183;88;21257;-83
2022/05/25 07:59:17;;;;;;;13.10;4.90;;;;;;;22.59;47.45;100052.20;1381823;90;21220;-82
2022/05/25 08:07:26;;;;;;;8.20;4.17;;;;;;;23.13;48.04;100051.46;1348310;92;21443;-83
2022/05/25 08:09:58;;;;;;;16.73;4.33;;;;;;;23.29;47.19;100057.47;1348479;92;21317;-83
2022/05/25 08:12:24;;;;;;;10.25;5.42;;;;;;;23.50;47.07;100065.41;1385468;89;22285;-83
2022/05/25 08:14:51;;;;;;;11.43;5.33;;;;;;;23.65;46.79;100064.91;1386483;89;21411;-83
2022/05/25 08:17:17;;;;;;;12.20;3.80;;;;;;;23.74;45.41;100072.92;1386171;89;21376;-82
2022/05/25 08:19:43;;;;;;;13.48;4.12;;;;;;;23.47;43.15;100078.05;1386073;89;21354;-83
2022/05/25 08:22:09;;;;;;;8.08;4.42;;;;;;;23.37;44.77;100075.98;1386146;89;21529;-83
2022/05/25 08:24:35;;;;;;;17.77;5.33;;;;;;;23.45;44.73;100084.75;1348287;92;21391;-83
2022/05/25 08:27:11;;;;;;;7.72;4.87;;;;;;;23.64;45.76;100071.34;1367855;90;21301;-94
2022/05/25 08:29:37;;;;;;;12.60;6.58;;;;;;;23.77;45.02;100071.09;1387842;89;22884;-88
2022/05/25 08:32:04;;;;;;;19.65;7.37;;;;;;;23.96;44.90;100075.72;1349040;92;21362;-88
2022/05/25 08:34:31;;;;;;;22.65;11.55;;;;;;;24.20;44.75;100072.89;1386569;89;21375;-90
2022/05/25 08:36:58;;;;;;;22.80;12.50;;;;;;;24.31;43.36;100075.51;1386064;89;22696;-86
2022/05/25 08:39:24;;;;;;;22.30;11.88;;;;;;;24.36;41.39;100073.39;1349466;92;21339;-89
2022/05/25 08:41:53;;;;;;;22.32;9.10;;;;;;;24.43;42.73;100075.98;1386620;89;21353;-90
2022/05/25 08:44:23;;;;;;;15.68;8.53;;;;;;;24.47;41.96;100073.88;1386432;89;21360;-87
2022/05/25 08:46:55;;;;;;;13.48;6.75;;;;;;;24.54;42.43;100077.23;1368466;90;21427;-86
2022/05/25 08:49:23;;;;;;;14.38;7.05;;;;;;;24.63;42.47;100075.44;1386040;89;21243;-86
2022/05/25 08:51:55;;;;;;;15.55;6.42;;;;;;;24.74;41.51;100083.98;1349247;92;21397;-87
2022/05/25 08:54:25;;;;;;;20.55;5.15;;;;;;;24.78;41.42;100081.63;1387134;89;22307;-86
2022/05/25 08:57:05;;;;;;;16.82;5.65;;;;;;;24.84;41.54;100077.91;1364354;90;21442;-87
2022/05/25 08:59:48;;;;;;;12.00;4.05;;;;;;;25.01;41.19;100082.73;1382387;89;22394;-87
2022/05/25 09:02:47;;;;;;;11.68;4.25;;;;;;;25.06;40.48;100082.81;1382662;89;22299;-87
2022/05/25 09:05:46;;;;;;;15.68;4.58;;;;;;;25.23;40.25;100083.29;1381455;89;21346;-87
2022/05/25 09:08:23;;;;;;;8.03;3.90;;;;;;;25.21;39.67;100089.78;1378838;89;21387;-87
2022/05/25 09:10:59;;;;;;;8.25;3.47;;;;;;;25.29;39.59;100084.98;1379168;89;21411;-86
2022/05/25 09:13:39;;;;;;;7.22;2.92;;;;;;;25.40;38.07;100089.45;1373475;88;21449;-86
2022/05/25 09:16:15;;;;;;;7.33;3.10;;;;;;;25.56;38.53;100092.62;1358600;90;22292;-86
2022/05/25 09:19:03;;;;;;;12.50;3.27;;;;;;;25.77;38.33;100086.05;1373578;89;21288;-86
2022/05/25 09:21:36;;;;;;;7.30;2.95;;;;;;;25.90;37.71;100077.54;1375213;89;21339;-88
2022/05/25 09:24:08;;;;;;;8.00;3.20;;;;;;;26.04;37.36;100078.75;1344285;92;22915;-87
2022/05/25 09:26:34;;;;;;;34.00;3.87;;;;;;;26.05;37.32;100085.80;1375456;89;21346;-86
2022/05/25 09:29:05;;;;;;;23.27;3.92;;;;;;;26.18;37.57;100080.49;1358613;91;21406;-87
2022/05/25 09:31:37;;;;;;;16.37;3.75;;;;;;;26.37;37.84;100074.11;1344578;92;21394;-87
2022/05/25 09:34:08;;;;;;;7.50;2.87;;;;;;;26.52;37.51;100067.45;1375062;89;21412;-87
2022/05/25 09:36:52;;;;;;;6.25;3.00;;;;;;;26.67;36.92;100068.63;1375207;89;21324;-88
2022/05/25 09:39:31;;;;;;;5.40;2.77;;;;;;;26.67;36.85;100071.33;1344124;92;21407;-87
2022/05/25 09:42:02;;;;;;;14.53;3.87;;;;;;;26.74;36.62;100070.58;1375203;89;21347;-87
2022/05/25 09:44:29;;;;;;;9.50;3.08;;;;;;;26.71;35.16;100069.20;1375382;89;21331;-87
2022/05/25 09:47:03;;;;;;;9.10;3.40;;;;;;;26.65;34.58;100064.02;1375873;89;22353;-87
2022/05/25 09:49:49;;;;;;;11.15;3.62;;;;;;;26.68;36.09;100066.20;1375148;89;21354;-88
2022/05/25 09:52:27;;;;;;;8.55;3.83;;;;;;;26.91;35.84;100069.03;1344127;92;21280;-87
2022/05/25 09:55:00;;;;;;;7.03;3.77;;;;;;;27.09;35.98;100073.18;1344324;92;22396;-88
2022/05/25 09:57:35;;;;;;;8.70;3.27;;;;;;;27.36;35.93;100062.15;1341696;92;21406;-87
2022/05/25 10:00:29;;;;;;;8.93;3.17;;;;;;;27.44;35.84;100059.73;1341113;94;21421;-88
2022/05/25 10:03:02;;;;;;;11.50;3.05;;;;;;;27.47;35.49;100054.84;1341413;92;21377;-87
2022/05/25 10:05:34;;;;;;;10.35;2.83;;;;;;;27.56;35.71;100049.96;1341096;92;21532;-88
2022/05/25 10:08:30;;;;;;;12.63;3.80;;;;;;;27.56;35.41;100034.20;1341259;92;21259;-87
2022/05/25 10:11:29;;;;;;;6.87;3.85;;;;;;;27.61;34.94;100039.11;1341308;92;21354;-88
2022/05/25 10:13:58;;;;;;;8.03;3.70;;;;;;;27.58;35.15;100033.41;1342487;92;21473;-86
2022/05/25 10:16:29;;;;;;;14.15;3.22;;;;;;;27.57;35.05;100022.27;1340679;92;21324;-87
2022/05/25 10:18:58;;;;;;;8.93;4.12;;;;;;;27.73;35.74;100023.89;1338577;92;21439;-87
2022/05/25 10:21:32;;;;;;;8.18;3.30;;;;;;;27.85;35.23;100021.77;1322511;94;21539;-87
2022/05/25 10:24:00;;;;;;;6.70;3.42;;;;;;;27.97;35.55;100018.78;1342252;92;22330;-87
2022/05/25 10:26:38;;;;;;;5.28;2.95;;;;;;;28.01;35.23;100016.32;1376629;89;21376;-88
2022/05/25 10:29:11;;;;;;;9.00;3.55;;;;;;;28.12;35.64;100011.95;1376293;89;21325;-88
2022/05/25 10:37:41;;;;;;;12.37;3.30;;;;;;;28.53;34.81;100007.00;1361758;91;21271;-87
2022/05/25 10:40:09;;;;;;;7.47;3.50;;;;;;;28.69;35.21;100014.03;1359663;91;22830;-87
2022/05/25 10:42:45;;;;;;;8.18;3.47;;;;;;;28.93;34.59;100012.02;1376404;89;21317;-88
2022/05/25 10:45:18;;;;;;;8.63;3.55;;;;;;;29.03;33.96;100011.18;1375492;90;22284;-87
2022/05/25 10:47:59;;;;;;;12.23;3.58;;;;;;;28.82;34.12;100014.52;1376170;89;22741;-88
2022/05/25 10:50:46;;;;;;;9.45;3.75;;;;;;;28.71;34.46;99999.57;1376431;89;21339;-87
2022/05/25 10:54:52;;;;;;;8.10;3.60;;;;;;;28.75;34.58;100001.22;1376300;89;21353;-88
2022/05/25 10:56:46;;;;;;;9.43;2.98;;;;;;;28.90;34.38;100005.22;1358559;89;21524;-87
2022/05/25 10:59:37;;;;;;;4.70;3.12;;;;;;;28.83;34.04;99999.80;1345552;93;21362;-87
2022/05/25 11:02:31;;;;;;;26.85;5.00;;;;;;;28.78;34.76;100005.55;1380918;89;21324;-87
2022/05/25 11:05:31;;;;;;;9.45;4.35;;;;;;;28.77;34.88;100006.66;1380569;89;21264;-87
2022/05/25 11:08:21;;;;;;;59.38;6.55;;;;;;;28.84;34.68;100009.06;1380120;89;22033;-88
2022/05/25 11:10:55;;;;;;;11.68;3.40;;;;;;;28.84;34.11;100006.90;1380085;89;21317;-88
2022/05/25 11:14:02;;;;;;;21.48;3.17;;;;;;;28.56;33.54;100013.25;1383847;89;21356;-88
2022/05/25 11:16:45;;;;;;;7.47;2.90;;;;;;;28.39;33.55;100011.36;1385295;89;22163;-88
2022/05/25 11:20:01;;;;;;;5.65;3.67;;;;;;;28.35;33.48;100005.11;1345617;92;21307;-87
2022/05/25 11:22:41;;;;;;;16.10;4.00;;;;;;;28.72;33.57;100007.22;1383448;89;21191;-88
2022/05/25 11:25:52;;;;;;;10.23;4.10;;;;;;;29.14;33.52;100002.67;1374341;89;22451;-90
2022/05/25 11:28:32;;;;;;;12.95;3.25;;;;;;;29.20;33.01;99993.92;1342820;92;21368;-90
2022/05/25 11:31:21;;;;;;;12.80;3.55;;;;;;;29.12;32.68;99997.27;1342798;92;21310;-92
2022/05/25 11:34:11;;;;;;;5.50;2.85;;;;;;;29.10;32.64;100000.80;1376724;89;21379;-86
2022/05/25 11:37:04;;;;;;;3.70;2.45;;;;;;;29.21;32.68;99992.29;1388379;89;21322;-90
2022/05/25 11:39:38;;;;;;;106.60;7.22;;;;;;;29.35;32.69;99993.84;1388406;89;21390;-87
2022/05/25 11:42:34;;;;;;;8.63;3.02;;;;;;;29.60;32.59;99998.83;1387730;89;21409;-87
2022/05/25 11:45:37;;;;;;;8.75;3.98;;;;;;;29.53;32.21;99999.16;1387053;89;21461;-88
2022/05/25 11:48:17;;;;;;;5.35;2.55;;;;;;;29.65;32.39;99989.28;1387419;89;21247;-85
2022/05/25 11:50:54;;;;;;;6.17;2.25;;;;;;;29.63;32.32;99986.83;1386651;89;21386;-87
2022/05/25 11:53:47;;;;;;;10.55;3.02;;;;;;;29.50;33.03;99990.19;1384943;89;22260;-88
2022/05/25 11:56:28;;;;;;;8.80;2.60;;;;;;;29.24;33.12;99989.00;1366660;89;21397;-87
2022/05/25 11:59:39;;;;;;;8.05;3.05;;;;;;;29.27;33.95;99986.81;1373306;89;21346;-89
2022/05/25 12:02:43;;;;;;;10.78;2.98;;;;;;;29.35;33.83;99987.58;1372405;90;21463;-88
2022/05/25 12:05:32;;;;;;;11.48;3.10;;;;;;;29.41;33.99;99986.45;1375766;89;21309;-89
2022/05/25 12:08:37;;;;;;;6.75;2.17;;;;;;;29.54;33.89;99986.34;1379830;89;21369;-89
2022/05/25 12:11:26;;;;;;;13.10;2.17;;;;;;;29.38;33.94;99982.38;1376998;89;21397;-89
2022/05/25 12:14:25;;;;;;;5.17;2.50;;;;;;;29.20;34.11;99981.14;1376411;89;21287;-88
2022/05/25 12:16:55;;;;;;;17.57;3.35;;;;;;;29.12;34.12;99991.81;1348726;89;22255;-89